Domov               UVHVVR             MKGP            O straneh              
ZDRAVSTVENO VARSTVO RASTLIN
  MREŽA AGROMET. POSTAJ
 ► PROGNOSTIČNA OBVESTILA
AGROMETEOROLOŠKI PODATKI -
ARSO
OBVLADOVANJE TVEGANJ ZARADI
NEUGODNIH VREMENSKIH RAZMER
  ► NARAVNE NESREČE
  ► SUŠA/MOČA
  ► NAMAKANJE
  ► ŽLED (gozdarstvo)
KARTOGRAFSKI PRIKAZI
SPLETNE POVEZAVE
PROJEKTI IN PUBLIKACIJE

AGROMETEOROLOŠKA MREŽA: VREMENSKE POSTAJE IN FENOLOŠKA OPAZOVANJA

Pregled podatkov za lokacijo Parižlje, meteorološka postaja 24303

Pregled senzorjev na lokaciji

ID Ime Zadnja
vrednost
Datum
zadnje
spremembe
Tip
senzorja
1493 Temperatura 2 m ( °C) 16,34 °C 19.8.2017 03:00 Generic -40 - +60 °C
1494 Relativna vlaga 2 m (% RH) 89,99 % RH 19.8.2017 03:00 Generic 0 - 100 %
1495 Omočenost lista (U) 4 U 19.8.2017 03:00 A730WET
1496 Padavine 0.2 mm (mm) 0 mm 19.8.2017 03:00
2139 Sončno sevanje (W/m2) 0 W/m2 19.8.2017 03:00 MS-020VM 1400 W/m²

Pregled podatkov zadnjih 24 ur

Zap.
št.
Datum in čas Parižlje
Omočenost
lista
Padavine
0.2
mm
Relativna
vlaga
2
m
Sončno
sevanje
Temperatura
2
m
0 19.8.2017 02:00 4 0 89,99 0 16,34
1 19.8.2017 01:30 4 0 88,5 0 16,87
2 19.8.2017 01:00 2 0 88,62 0 17,07
3 19.8.2017 00:30 1 0 85,76 0 17,14
4 19.8.2017 00:00 0 0 87,62 0 17,85
5 18.8.2017 23:30 0 0 83,08 0 18,66
6 18.8.2017 23:00 0 0 79,51 0 19,73
7 18.8.2017 22:30 0 0 79,15 0 19,56
8 18.8.2017 22:00 0 0 79,68 0 20,1
9 18.8.2017 21:30 0 0 78,14 0 20,54
10 18.8.2017 21:00 0 0 75,41 0 21,29
11 18.8.2017 20:30 0 0 71,28 0 23,32
12 18.8.2017 20:00 0 0 67,57 0 23,86
13 18.8.2017 19:30 0 0 62 24,81
14 18.8.2017 19:00 0 0 58,44 7,18 26,03
15 18.8.2017 18:30 0 0 55,58 26,67 29,84
16 18.8.2017 18:00 0 0 36,36 65,64 31,75
17 18.8.2017 17:30 0 0 33,87 104,62 32,09
18 18.8.2017 17:00 0 0 29,69 145,64 32,5
19 18.8.2017 16:30 0 0 30,65 185,3 32,99
20 18.8.2017 16:00 0 0 28,84 225,3 32,82
21 18.8.2017 15:30 0 0 29,77 263,25 32,77
22 18.8.2017 15:00 0 0 29,84 295,73 32,82
23 18.8.2017 14:30 0 0 30,35 325,81 32,58
24 18.8.2017 14:00 0 0 31,4 349,4 32,33
25 18.8.2017 13:30 0 0 31,75 371,62 32,21
26 18.8.2017 13:00 0 0 33,55 369,91 31,79
27 18.8.2017 12:30 0 0 37,66 360,34 30,79
28 18.8.2017 12:00 0 0 42,59 337,44 30,21
29 18.8.2017 11:30 0 0 43,47 376,75 30,23
30 18.8.2017 11:00 0 0 42,47 346,67 29,5
31 18.8.2017 10:30 0 0 45,81 314,19 28,74
32 18.8.2017 10:00 0 0 48,89 295,73 28,23
33 18.8.2017 09:30 0 0 51,4 280,68 27,06
34 18.8.2017 09:00 0 0 55,31 253,33 25,49
35 18.8.2017 08:30 0 0 57,85 216,41 23,93
36 18.8.2017 08:00 0 0 65,45 178,46 22,44
37 18.8.2017 07:30 0 0 73,16 135,38 20,88
38 18.8.2017 07:00 0 0 76,12 101,88 20
39 18.8.2017 06:30 4 0 79,58 78,29 18,68
40 18.8.2017 06:00 10 0 85,08 34,87 17,75
41 18.8.2017 05:30 10 0 89,82 7,86 16,43
42 18.8.2017 05:00 10 0 90,38 0 16,04
43 18.8.2017 04:30 10 0 93,72 0 15,63
44 18.8.2017 04:00 9 0 91,18 0 15,87
© 2011 Ministrstvo za kmetijstvo, gozdarstvo in prehrano. Vse pravice pridržane.